Terminal Aerodrome Forecast
Issued by NWS

Current Version | Previous Version | Text Only | Print | Product List | Glossary On
Versions: 1 2 3 4 5 6 7 8 9 10 11 12
000
FTAK31 PAJN 222340
TAFAJN
TAF
PAJN 222340Z 2300/2324 11008KT P6SM VCSH SCT035 OVC050
      TEMPO 2300/2303 6SM -SHSN BKN025 OVC040
     FM230300 08006KT P6SM -SHSN OVC035
     FM230900 VRB04KT P6SM VCSH SCT035 OVC050
     FM231500 32005KT P6SM BKN050=

USA.gov is the U.S. government's official web portal to all federal, state and local government web resources and services.